Time;durP1;ratioP1;P1;durP2;ratioP2;P2;SDS_P1;SDS_P2;PMS_P1;PMS_P2;Temp;Humidity;BMP_temperature;BMP_pressure;BME280_temperature;BME280_humidity;BME280_pressure;Samples;Min_cycle;Max_cycle;Signal;HPM_P1;HPM_P2
2022/03/12 00:00:43;;;;;;;8.00;4.88;;;;;;;;;;5094964;28;20569;-74
2022/03/12 00:03:10;;;;;;;9.43;5.35;;;6.30;77.80;;;;;;5095222;28;20090;-74
2022/03/12 00:05:36;;;;;;;10.73;5.45;;;6.30;78.60;;;;;;5095083;28;20074;-74
2022/03/12 00:08:07;;;;;;;9.13;5.35;;;6.20;78.40;;;;;;5095126;28;20039;-73
2022/03/12 00:10:33;;;;;;;10.18;5.35;;;6.20;79.10;;;;;;5095275;28;20044;-75
2022/03/12 00:13:01;;;;;;;12.23;6.50;;;6.20;78.70;;;;;;5094882;28;20059;-74
2022/03/12 00:15:33;;;;;;;9.05;5.22;;;6.20;78.50;;;;;;5094814;28;20051;-73
2022/03/12 00:17:59;;;;;;;7.80;5.10;;;6.20;78.10;;;;;;5095340;28;20044;-73
2022/03/12 00:20:33;;;;;;;9.05;5.47;;;6.20;78.20;;;;;;5094857;28;20146;-73
2022/03/12 00:22:58;;;;;;;7.80;5.20;;;6.20;77.90;;;;;;5094841;28;20040;-73
2022/03/12 00:25:26;;;;;;;8.68;5.45;;;6.20;78.50;;;;;;5094624;28;20376;-74
2022/03/12 00:27:52;;;;;;;9.68;5.32;;;6.20;78.90;;;;;;5094756;28;20044;-73
2022/03/12 00:30:21;;;;;;;13.00;5.00;;;6.10;78.70;;;;;;5094673;28;20050;-73
2022/03/12 00:32:48;;;;;;;8.07;5.00;;;6.10;78.00;;;;;;5094513;28;20036;-74
2022/03/12 00:35:15;;;;;;;9.80;5.50;;;6.10;79.00;;;;;;5094425;28;20500;-74
2022/03/12 00:37:41;;;;;;;8.20;4.97;;;6.10;79.30;;;;;;5094592;28;20059;-72
2022/03/12 00:40:07;;;;;;;10.95;5.43;;;6.20;79.40;;;;;;5094617;28;20044;-73
2022/03/12 00:42:33;;;;;;;10.45;5.18;;;6.00;79.50;;;;;;5094407;28;20043;-74
2022/03/12 00:44:59;;;;;;;9.25;5.53;;;6.00;79.20;;;;;;5094418;28;20040;-72
2022/03/12 00:47:26;;;;;;;8.30;5.23;;;6.00;79.20;;;;;;5094566;28;20051;-74
2022/03/12 00:49:52;;;;;;;10.00;5.47;;;6.00;79.50;;;;;;5093512;28;20052;-74
2022/03/12 00:52:18;;;;;;;14.23;6.30;;;5.90;80.10;;;;;;5094596;28;20080;-75
2022/03/12 00:54:44;;;;;;;16.17;5.72;;;5.90;79.90;;;;;;5094544;28;20097;-73
2022/03/12 00:57:11;;;;;;;11.95;6.05;;;5.90;80.30;;;;;;5094240;28;20070;-74
2022/03/12 00:59:38;;;;;;;15.10;5.40;;;5.90;80.60;;;;;;5093607;28;20047;-73
2022/03/12 01:02:05;;;;;;;11.80;5.88;;;5.90;80.20;;;;;;5093329;28;20058;-73
2022/03/12 01:04:31;;;;;;;;;;;5.90;80.30;;;;;;5093579;28;20044;-74
2022/03/12 01:06:56;;;;;;;12.77;5.38;;;5.90;80.50;;;;;;5094116;28;19923;-74
2022/03/12 01:09:22;;;;;;;13.55;5.53;;;5.90;80.30;;;;;;5094095;28;20090;-74
2022/03/12 01:11:48;;;;;;;11.23;5.97;;;5.90;80.50;;;;;;5093903;28;20419;-73
2022/03/12 01:14:15;;;;;;;11.52;6.05;;;5.90;80.20;;;;;;5094016;28;20075;-74
2022/03/12 01:16:40;;;;;;;10.93;5.20;;;5.90;80.10;;;;;;5094092;28;20192;-74
2022/03/12 01:19:06;;;;;;;11.25;5.40;;;5.90;80.20;;;;;;5094032;28;20083;-73
2022/03/12 01:21:32;;;;;;;11.73;5.60;;;6.20;81.40;;;;;;5093989;28;20040;-73
2022/03/12 01:23:57;;;;;;;11.88;5.05;;;5.90;80.50;;;;;;5093972;28;20131;-73
2022/03/12 01:26:24;;;;;;;16.08;5.72;;;5.90;81.20;;;;;;5093779;28;20490;-73
2022/03/12 01:28:50;;;;;;;;;;;5.90;80.90;;;;;;5094412;28;20040;-74
2022/03/12 01:31:16;;;;;;;9.05;5.45;;;5.90;82.70;;;;;;5093800;28;19999;-74
2022/03/12 01:33:42;;;;;;;8.45;5.30;;;5.80;81.40;;;;;;5094077;28;20032;-74
2022/03/12 01:36:08;;;;;;;8.18;5.20;;;5.80;81.20;;;;;;5093797;28;20089;-74
2022/03/12 01:38:55;;;;;;;8.15;5.53;;;5.80;81.50;;;;;;5093839;28;20421;-73
2022/03/12 01:41:27;;;;;;;8.30;5.60;;;5.80;82.00;;;;;;5093865;28;20068;-74
2022/03/12 01:43:56;;;;;;;9.98;5.72;;;5.80;82.10;;;;;;5093756;28;20040;-73
2022/03/12 01:46:34;;;;;;;10.98;6.07;;;5.70;81.80;;;;;;5093555;28;20048;-75
2022/03/12 01:49:03;;;;;;;;;;;5.70;82.50;;;;;;5094266;28;20044;-74
2022/03/12 01:51:29;;;;;;;11.40;5.68;;;5.70;83.50;;;;;;5093550;28;19920;-73
2022/03/12 01:53:55;;;;;;;9.48;5.72;;;5.60;83.50;;;;;;5093319;28;20233;-73
2022/03/12 01:56:27;;;;;;;9.98;5.97;;;5.60;84.30;;;;;;5093888;28;20100;-73
2022/03/12 01:58:52;;;;;;;9.45;5.65;;;5.60;83.10;;;;;;5093601;28;20040;-73
2022/03/12 02:01:19;;;;;;;12.32;5.70;;;5.60;83.50;;;;;;5093480;28;20388;-73
2022/03/12 02:03:46;;;;;;;10.02;5.55;;;5.50;83.10;;;;;;5093482;28;20125;-74
2022/03/12 02:06:19;;;;;;;9.27;5.45;;;5.50;83.80;;;;;;5093462;28;20173;-73
2022/03/12 02:08:48;;;;;;;9.77;5.65;;;5.50;83.40;;;;;;5093498;28;20051;-74
2022/03/12 02:11:14;;;;;;;8.40;5.35;;;5.60;83.10;;;;;;5096101;28;20040;-73
2022/03/12 02:13:40;;;;;;;10.30;5.10;;;5.50;83.30;;;;;;5097374;28;20059;-73
2022/03/12 02:16:08;;;;;;;9.07;5.60;;;5.50;83.50;;;;;;5097264;28;20051;-74
2022/03/12 02:18:39;;;;;;;8.43;5.53;;;5.50;83.60;;;;;;5097329;28;20093;-73
2022/03/12 02:21:05;;;;;;;10.85;5.13;;;5.50;83.90;;;;;;5097233;28;20044;-73
2022/03/12 02:23:47;;;;;;;10.02;4.90;;;5.50;83.50;;;;;;5097128;28;20040;-74
2022/03/12 02:26:14;;;;;;;11.82;5.30;;;5.50;83.20;;;;;;5097268;28;20128;-74
2022/03/12 02:28:39;;;;;;;9.05;5.28;;;5.50;84.20;;;;;;5096971;28;20097;-74
2022/03/12 02:31:05;;;;;;;8.23;4.93;;;5.50;84.20;;;;;;5097581;28;20048;-73
2022/03/12 02:33:31;;;;;;;10.93;5.82;;;5.50;83.60;;;;;;5096851;28;20040;-74
2022/03/12 02:35:57;;;;;;;8.63;5.67;;;5.50;83.90;;;;;;5096297;28;20044;-73
2022/03/12 02:38:26;;;;;;;13.43;7.50;;;5.50;83.70;;;;;;5095109;28;20051;-74
2022/03/12 02:40:52;;;;;;;11.45;5.30;;;5.40;83.60;;;;;;5095873;28;20044;-72
2022/03/12 02:43:25;;;;;;;7.88;5.20;;;5.50;83.80;;;;;;5096580;28;20040;-73
2022/03/12 02:45:56;;;;;;;9.95;5.88;;;5.50;84.20;;;;;;5096705;28;20044;-73
2022/03/12 02:48:24;;;;;;;9.23;5.70;;;5.50;84.10;;;;;;5096432;28;20094;-74
2022/03/12 02:50:51;;;;;;;9.02;5.82;;;5.40;83.90;;;;;;5096077;28;20503;-74
2022/03/12 02:53:17;;;;;;;10.15;5.40;;;5.50;84.00;;;;;;5096718;28;20357;-74
2022/03/12 02:55:43;;;;;;;8.50;5.63;;;5.50;84.30;;;;;;5096541;28;20047;-74
2022/03/12 02:58:10;;;;;;;7.80;5.38;;;5.40;84.60;;;;;;5096510;28;20050;-74
2022/03/12 03:00:37;;;;;;;10.35;5.57;;;5.40;84.70;;;;;;5096387;28;20051;-73
2022/03/12 03:03:05;;;;;;;10.35;5.90;;;5.40;84.30;;;;;;5096900;28;20044;-74
2022/03/12 03:05:36;;;;;;;9.73;5.82;;;5.40;84.80;;;;;;5096380;28;20051;-71
2022/03/12 03:08:09;;;;;;;10.25;5.47;;;5.40;84.80;;;;;;5096410;28;20044;-72
2022/03/12 03:10:41;;;;;;;8.75;5.10;;;5.50;84.00;;;;;;5096346;28;20488;-72
2022/03/12 03:13:20;;;;;;;8.40;5.25;;;5.50;84.30;;;;;;5095708;28;20048;-73
2022/03/12 03:16:07;;;;;;;12.40;5.43;;;5.50;83.80;;;;;;5096676;28;20055;-71
2022/03/12 03:18:38;;;;;;;10.90;5.90;;;5.50;84.30;;;;;;5096242;28;20044;-73
2022/03/12 03:21:07;;;;;;;18.00;5.65;;;5.50;84.00;;;;;;5095977;28;20093;-73
2022/03/12 03:23:32;;;;;;;10.38;5.85;;;5.50;84.40;;;;;;5094335;28;20052;-73
2022/03/12 03:26:00;;;;;;;12.43;5.85;;;5.50;84.30;;;;;;5096554;28;20108;-72
2022/03/12 03:28:26;;;;;;;10.23;6.03;;;5.50;84.00;;;;;;5095965;28;20044;-73
2022/03/12 03:30:52;;;;;;;8.13;5.28;;;5.50;84.40;;;;;;5095902;28;20105;-72
2022/03/12 03:33:20;;;;;;;11.40;5.45;;;5.50;84.00;;;;;;5095741;28;20040;-72
2022/03/12 03:35:46;;;;;;;10.18;5.80;;;5.50;83.60;;;;;;5095830;28;20047;-73
2022/03/12 03:38:13;;;;;;;8.25;5.45;;;5.50;84.00;;;;;;5095613;28;20109;-72
2022/03/12 03:40:40;;;;;;;;;;;5.50;84.00;;;;;;5096548;28;20048;-73
2022/03/12 03:43:14;;;;;;;11.20;5.57;;;5.50;83.40;;;;;;5095735;28;19924;-73
2022/03/12 03:45:43;;;;;;;8.13;5.20;;;5.50;83.30;;;;;;5095616;28;20048;-72
2022/03/12 03:48:14;;;;;;;9.32;5.47;;;5.50;83.40;;;;;;5094568;28;20055;-73
2022/03/12 03:50:41;;;;;;;15.13;5.55;;;5.50;83.20;;;;;;5095370;28;20097;-74
2022/03/12 03:53:09;;;;;;;9.32;5.00;;;5.40;83.60;;;;;;5095891;28;20421;-73
2022/03/12 03:55:34;;;;;;;8.35;5.07;;;5.40;83.60;;;;;;5095811;28;20239;-73
2022/03/12 03:58:02;;;;;;;9.63;5.15;;;5.40;83.90;;;;;;5095617;28;20080;-72
2022/03/12 04:00:28;;;;;;;9.93;5.47;;;5.30;84.30;;;;;;5095324;28;20048;-73
2022/03/12 04:03:04;;;;;;;8.43;5.22;;;5.30;84.00;;;;;;5095365;28;20032;-73
2022/03/12 04:05:32;;;;;;;9.18;5.45;;;5.30;84.20;;;;;;5095161;28;20062;-72
2022/03/12 04:08:00;;;;;;;9.43;5.18;;;5.20;84.30;;;;;;5095139;28;20051;-72
2022/03/12 04:10:29;;;;;;;9.38;5.75;;;5.20;84.70;;;;;;5095069;28;20116;-74
2022/03/12 04:12:55;;;;;;;10.23;5.75;;;5.20;85.30;;;;;;5094937;28;20067;-73
2022/03/12 04:15:21;;;;;;;7.67;5.20;;;5.10;84.90;;;;;;5095119;28;20442;-74
2022/03/12 04:17:50;;;;;;;9.90;5.32;;;5.20;84.80;;;;;;5095023;28;20036;-74
2022/03/12 04:20:18;;;;;;;8.27;5.32;;;5.10;85.60;;;;;;5094975;28;20134;-73
2022/03/12 04:22:47;;;;;;;9.82;5.47;;;5.10;84.90;;;;;;5094806;28;20040;-74
2022/03/12 04:25:13;;;;;;;8.85;5.40;;;5.10;85.10;;;;;;5094883;28;20035;-73
2022/03/12 04:27:42;;;;;;;8.55;5.57;;;5.10;85.40;;;;;;5094628;28;20071;-73
2022/03/12 04:30:09;;;;;;;8.50;5.43;;;5.00;85.00;;;;;;5094783;28;20165;-74
2022/03/12 04:32:35;;;;;;;7.75;5.05;;;5.00;85.00;;;;;;5094496;28;20044;-73
2022/03/12 04:35:01;;;;;;;8.98;5.47;;;5.00;85.00;;;;;;5094659;28;20051;-73
2022/03/12 04:37:27;;;;;;;8.30;5.30;;;5.00;86.00;;;;;;5093447;28;20098;-72
2022/03/12 04:39:53;;;;;;;9.15;5.15;;;4.90;85.50;;;;;;5094191;28;20514;-72
2022/03/12 04:42:19;;;;;;;8.73;5.75;;;4.90;85.30;;;;;;5093678;28;20043;-73
2022/03/12 04:44:44;;;;;;;9.27;5.20;;;4.90;85.70;;;;;;5094456;28;20131;-73
2022/03/12 04:47:10;;;;;;;7.93;5.40;;;4.80;86.30;;;;;;5093316;28;20044;-74
2022/03/12 04:49:36;;;;;;;11.43;5.22;;;4.80;86.10;;;;;;5094388;28;20044;-72
2022/03/12 04:52:02;;;;;;;8.48;5.50;;;4.80;85.60;;;;;;5094203;28;20098;-72
2022/03/12 04:54:32;;;;;;;11.90;5.45;;;4.80;86.40;;;;;;5094424;28;20072;-74
2022/03/12 04:56:58;;;;;;;9.60;5.60;;;4.80;86.50;;;;;;5093375;28;20391;-73
2022/03/12 04:59:23;;;;;;;8.10;4.88;;;4.70;86.20;;;;;;5094000;28;20135;-73
2022/03/12 05:01:49;;;;;;;10.57;5.32;;;4.70;85.80;;;;;;5094162;28;20079;-73
2022/03/12 05:04:15;;;;;;;9.65;5.70;;;4.70;86.10;;;;;;5094171;28;20070;-72
2022/03/12 05:06:40;;;;;;;8.60;5.18;;;4.60;86.60;;;;;;5094307;28;20122;-75
2022/03/12 05:09:06;;;;;;;11.73;5.25;;;4.60;86.40;;;;;;5094110;28;20495;-71
2022/03/12 05:11:36;;;;;;;10.18;5.25;;;4.60;86.40;;;;;;5094041;28;20427;-73
2022/03/12 05:14:02;;;;;;;11.52;6.05;;;4.50;86.50;;;;;;5093636;28;20067;-73
2022/03/12 05:16:28;;;;;;;10.27;5.45;;;4.50;86.70;;;;;;5093950;28;20498;-73
2022/03/12 05:18:57;;;;;;;11.57;5.88;;;4.40;86.90;;;;;;5094343;28;20126;-73
2022/03/12 05:21:23;;;;;;;9.20;5.15;;;4.40;87.10;;;;;;5093910;28;20105;-73
2022/03/12 05:23:49;;;;;;;8.52;5.15;;;4.40;87.20;;;;;;5093968;28;20442;-73
2022/03/12 05:26:15;;;;;;;10.43;5.35;;;4.30;87.40;;;;;;5093823;28;20484;-72
2022/03/12 05:28:41;;;;;;;9.00;5.35;;;4.30;87.20;;;;;;5092542;28;20093;-73
2022/03/12 05:31:09;;;;;;;8.73;5.18;;;4.30;86.70;;;;;;5093736;28;20177;-73
2022/03/12 05:33:35;;;;;;;8.82;5.22;;;4.30;87.50;;;;;;5093717;28;20079;-74
2022/03/12 05:36:02;;;;;;;7.93;4.83;;;4.20;87.30;;;;;;5093914;28;20424;-73
2022/03/12 05:38:31;;;;;;;7.60;5.13;;;4.20;87.10;;;;;;5093671;28;20073;-72
2022/03/12 05:40:57;;;;;;;11.18;5.47;;;4.10;87.50;;;;;;5093597;28;20040;-72
2022/03/12 05:43:24;;;;;;;8.98;5.35;;;4.10;87.50;;;;;;5093733;28;20396;-75
2022/03/12 05:45:51;;;;;;;8.60;5.32;;;4.10;87.90;;;;;;5095361;28;20044;-73
2022/03/12 05:48:17;;;;;;;8.85;5.47;;;4.00;87.50;;;;;;5097845;28;20101;-75
2022/03/12 05:50:45;;;;;;;8.82;5.15;;;4.00;87.70;;;;;;5097659;28;20044;-73
2022/03/12 05:53:11;;;;;;;8.68;5.40;;;4.00;87.50;;;;;;5097351;28;20036;-72
2022/03/12 05:55:41;;;;;;;7.25;5.03;;;4.00;87.60;;;;;;5097467;28;20039;-74
2022/03/12 05:58:08;;;;;;;7.75;5.03;;;4.00;87.90;;;;;;5097408;28;20055;-72
2022/03/12 06:00:34;;;;;;;;;;;3.90;88.50;;;;;;5098144;28;20052;-73
2022/03/12 06:03:01;;;;;;;8.70;5.00;;;4.00;87.10;;;;;;5097559;28;20360;-73
2022/03/12 06:05:27;;;;;;;;;;;3.90;88.00;;;;;;5098286;28;20048;-72
2022/03/12 06:07:54;;;;;;;8.90;4.50;;;4.00;88.00;;;;;;5097506;28;19927;-73
2022/03/12 06:10:21;;;;;;;11.05;5.20;;;4.00;88.30;;;;;;5097372;28;20047;-72
2022/03/12 06:12:48;;;;;;;;;;;4.10;87.20;;;;;;5097342;28;20502;-72
2022/03/12 06:15:17;;;;;;;9.00;5.17;;;4.10;88.40;;;;;;5097196;28;20293;-70
2022/03/12 06:17:44;;;;;;;9.45;4.53;;;4.20;87.70;;;;;;5097049;28;20766;-73
2022/03/12 06:20:10;;;;;;;8.57;4.75;;;4.20;86.90;;;;;;5097233;28;20491;-73
2022/03/12 06:22:37;;;;;;;8.60;5.22;;;4.30;86.60;;;;;;5097270;28;20395;-72
2022/03/12 06:25:07;;;;;;;8.35;5.07;;;4.30;87.20;;;;;;5097176;28;20059;-72
2022/03/12 06:27:33;;;;;;;7.93;5.32;;;4.40;86.80;;;;;;5097048;28;20054;-73
2022/03/12 06:29:59;;;;;;;9.30;5.35;;;4.40;86.40;;;;;;5096979;28;20126;-73
2022/03/12 06:32:24;;;;;;;8.95;4.97;;;4.40;85.80;;;;;;5096966;28;20096;-72
2022/03/12 06:34:50;;;;;;;8.95;5.15;;;4.50;86.20;;;;;;5096925;28;20426;-73
2022/03/12 06:37:15;;;;;;;7.05;5.00;;;4.60;86.20;;;;;;5096894;28;20537;-73
2022/03/12 06:39:41;;;;;;;7.57;4.75;;;4.50;85.90;;;;;;5096754;28;20048;-72
2022/03/12 06:42:07;;;;;;;9.00;4.90;;;4.60;86.00;;;;;;5096751;28;20462;-73
2022/03/12 06:44:36;;;;;;;10.25;5.03;;;4.70;85.80;;;;;;5096869;28;20051;-73
2022/03/12 06:47:04;;;;;;;11.63;5.10;;;4.60;86.20;;;;;;5095736;28;20090;-72
2022/03/12 06:49:30;;;;;;;8.13;4.93;;;4.70;87.10;;;;;;5096665;28;20480;-74
2022/03/12 06:51:56;;;;;;;9.38;5.07;;;4.70;85.50;;;;;;5096529;28;20048;-73
2022/03/12 06:54:22;;;;;;;8.45;4.97;;;4.80;86.10;;;;;;5096593;28;20105;-75
2022/03/12 06:56:48;;;;;;;7.20;4.97;;;4.80;87.10;;;;;;5095275;28;20051;-75
2022/03/12 06:59:14;;;;;;;13.45;5.15;;;4.80;86.40;;;;;;5095611;28;20048;-76
2022/03/12 07:01:39;;;;;;;13.43;5.43;;;4.80;87.50;;;;;;5096545;28;20381;-75
2022/03/12 07:04:06;;;;;;;7.20;4.60;;;4.90;86.80;;;;;;5096103;28;20066;-70
2022/03/12 07:06:33;;;;;;;10.48;6.03;;;5.00;86.20;;;;;;5096236;28;20048;-76
2022/03/12 07:08:59;;;;;;;;;;;5.00;85.60;;;;;;5095662;28;20097;-73
2022/03/12 07:11:25;;;;;;;11.32;4.82;;;5.10;86.50;;;;;;5096044;28;19924;-74
2022/03/12 07:13:50;;;;;;;12.77;5.72;;;5.10;85.90;;;;;;5095868;28;20492;-75
2022/03/12 07:16:16;;;;;;;9.95;5.60;;;5.20;86.80;;;;;;5096237;28;20105;-74
2022/03/12 07:18:42;;;;;;;8.02;5.10;;;5.30;87.40;;;;;;5061260;28;20471;-74
2022/03/12 07:21:07;;;;;;;9.70;5.75;;;5.30;85.50;;;;;;5095977;28;20043;-74
2022/03/12 07:23:34;;;;;;;11.32;5.53;;;5.40;86.20;;;;;;5095626;28;20044;-74
2022/03/12 07:25:59;;;;;;;10.73;5.23;;;5.50;86.60;;;;;;5095838;28;20389;-73
2022/03/12 07:28:25;;;;;;;10.70;5.00;;;5.60;85.70;;;;;;5096015;28;20044;-74
2022/03/12 07:30:50;;;;;;;8.23;5.13;;;5.60;86.10;;;;;;5096257;28;20079;-75
2022/03/12 07:33:16;;;;;;;10.80;5.25;;;5.60;85.60;;;;;;5095651;28;20044;-73
2022/03/12 07:35:44;;;;;;;8.13;4.80;;;5.70;85.50;;;;;;5095908;28;20044;-71
2022/03/12 07:38:11;;;;;;;11.10;5.85;;;5.70;85.30;;;;;;5095423;28;20052;-75
2022/03/12 07:40:36;;;;;;;13.13;5.47;;;5.70;85.80;;;;;;5094439;28;20044;-77
2022/03/12 07:43:03;;;;;;;9.48;5.70;;;5.70;85.70;;;;;;5095526;28;20036;-73
2022/03/12 07:45:29;;;;;;;8.35;5.20;;;5.70;86.20;;;;;;5095579;28;20041;-75
2022/03/12 07:47:55;;;;;;;9.43;5.00;;;5.70;86.80;;;;;;5094615;28;20055;-75
2022/03/12 07:50:21;;;;;;;9.07;5.10;;;5.70;86.20;;;;;;5077842;28;20052;-74
2022/03/12 07:52:47;;;;;;;11.05;5.45;;;5.80;85.50;;;;;;5094100;28;20051;-74
2022/03/12 07:55:13;;;;;;;12.60;5.43;;;6.00;86.20;;;;;;5095756;28;20403;-74
2022/03/12 07:57:41;;;;;;;9.10;5.60;;;6.10;85.40;;;;;;5095349;28;20119;-75
2022/03/12 08:00:13;;;;;;;9.30;5.47;;;6.30;86.50;;;;;;5094188;28;20074;-72
2022/03/12 08:02:39;;;;;;;10.82;5.53;;;6.40;84.70;;;;;;5097689;28;20040;-75
2022/03/12 08:05:05;;;;;;;8.43;4.93;;;6.60;85.60;;;;;;5096319;28;20101;-73
2022/03/12 08:07:33;;;;;;;11.27;5.85;;;6.60;85.20;;;;;;5095953;28;20094;-73
2022/03/12 08:09:59;;;;;;;12.45;6.03;;;6.70;84.40;;;;;;5096812;28;20081;-73
2022/03/12 08:12:30;;;;;;;10.27;5.03;;;6.80;84.90;;;;;;5098259;28;20040;-73
2022/03/12 08:14:57;;;;;;;11.27;5.47;;;6.90;84.70;;;;;;5115047;28;20087;-74
2022/03/12 08:17:23;;;;;;;14.98;5.82;;;7.00;85.30;;;;;;5100141;28;20071;-73
2022/03/12 08:19:49;;;;;;;9.80;5.50;;;7.10;84.40;;;;;;5093894;28;20050;-74
2022/03/12 08:22:15;;;;;;;12.35;5.40;;;7.10;84.20;;;;;;5094967;28;20127;-73
2022/03/12 08:24:41;;;;;;;8.35;5.60;;;7.20;85.40;;;;;;5093805;28;20040;-74
2022/03/12 08:27:07;;;;;;;10.38;5.38;;;7.30;84.40;;;;;;5095224;28;20149;-73
2022/03/12 08:29:33;;;;;;;11.83;5.77;;;7.40;84.50;;;;;;5101049;28;20044;-72
2022/03/12 08:31:59;;;;;;;10.77;6.22;;;7.50;84.00;;;;;;5097613;28;20079;-72
2022/03/12 08:34:25;;;;;;;13.55;5.78;;;7.60;85.40;;;;;;5094815;28;20048;-72
2022/03/12 08:36:51;;;;;;;10.73;5.70;;;7.70;85.40;;;;;;5093693;28;20055;-72
2022/03/12 08:39:17;;;;;;;9.80;6.25;;;7.90;85.20;;;;;;5094361;28;20047;-72
2022/03/12 08:41:43;;;;;;;9.82;5.90;;;7.90;84.90;;;;;;5094593;28;20044;-73
2022/03/12 08:44:09;;;;;;;13.75;6.15;;;8.10;84.50;;;;;;5094728;28;20044;-72
2022/03/12 08:46:35;;;;;;;11.20;6.07;;;8.20;84.80;;;;;;5094868;28;20404;-72
2022/03/12 08:49:02;;;;;;;10.30;6.22;;;8.30;85.70;;;;;;5094415;28;20043;-74
2022/03/12 08:51:28;;;;;;;10.38;6.13;;;8.50;85.70;;;;;;5093225;28;20170;-74
2022/03/12 08:53:53;;;;;;;10.00;6.25;;;8.70;84.80;;;;;;5093508;28;20123;-74
2022/03/12 08:56:19;;;;;;;9.68;6.10;;;8.70;85.30;;;;;;5094096;28;20040;-73
2022/03/12 08:58:45;;;;;;;9.63;6.13;;;8.90;84.60;;;;;;5094068;28;20048;-76
2022/03/12 09:01:11;;;;;;;13.65;6.43;;;9.00;85.50;;;;;;5094061;28;20499;-74
2022/03/12 09:03:37;;;;;;;11.13;5.95;;;9.10;85.20;;;;;;5092366;28;20043;-76
2022/03/12 09:06:04;;;;;;;17.48;6.38;;;9.10;85.60;;;;;;5093512;28;20043;-73
2022/03/12 09:08:30;;;;;;;8.85;5.68;;;9.20;85.30;;;;;;5092443;28;20040;-75
2022/03/12 09:10:55;;;;;;;13.38;6.45;;;9.40;86.40;;;;;;5094255;28;20551;-75
2022/03/12 09:13:22;;;;;;;11.25;6.40;;;9.50;86.70;;;;;;5093982;28;20547;-75
2022/03/12 09:15:48;;;;;;;10.60;6.78;;;9.50;86.60;;;;;;5094125;28;20044;-75
2022/03/12 09:18:15;;;;;;;10.77;6.40;;;9.70;87.90;;;;;;5093320;28;20395;-74
2022/03/12 09:20:46;;;;;;;11.75;6.15;;;9.80;88.70;;;;;;5093376;28;20044;-75
2022/03/12 09:23:20;;;;;;;13.60;6.57;;;9.90;88.00;;;;;;5093856;28;20051;-73
2022/03/12 09:25:47;;;;;;;12.55;6.68;;;10.00;87.60;;;;;;5093603;28;20486;-74
2022/03/12 09:28:13;;;;;;;13.68;6.50;;;10.10;87.90;;;;;;5093939;28;20087;-74
2022/03/12 09:30:39;;;;;;;11.07;6.60;;;10.10;88.00;;;;;;5092934;28;20463;-75
2022/03/12 09:33:06;;;;;;;9.85;6.45;;;10.30;88.70;;;;;;5093647;28;20040;-72
2022/03/12 09:35:31;;;;;;;10.82;6.38;;;10.30;90.00;;;;;;5093745;28;20052;-74
2022/03/12 09:37:59;;;;;;;11.30;6.35;;;10.40;89.60;;;;;;5093473;28;20061;-75
2022/03/12 09:40:27;;;;;;;12.30;6.85;;;10.50;90.50;;;;;;5093560;28;20496;-75
2022/03/12 09:42:52;;;;;;;10.82;6.30;;;10.60;90.50;;;;;;5093536;28;20508;-78
2022/03/12 09:45:22;;;;;;;13.63;7.32;;;10.70;90.30;;;;;;5093808;28;20122;-78
2022/03/12 09:47:48;;;;;;;9.55;6.55;;;10.80;90.60;;;;;;5093835;28;20040;-76
2022/03/12 09:50:14;;;;;;;11.05;6.95;;;10.90;91.20;;;;;;5093287;28;20051;-74
2022/03/12 09:52:41;;;;;;;11.48;6.90;;;11.10;91.20;;;;;;5091659;28;20036;-75
2022/03/12 09:55:07;;;;;;;11.93;6.70;;;11.10;90.40;;;;;;5093570;28;20075;-74
2022/03/12 09:57:34;;;;;;;11.02;6.57;;;11.30;91.00;;;;;;5093562;28;20079;-75
2022/03/12 10:00:04;;;;;;;10.02;6.63;;;11.40;91.20;;;;;;5093257;28;20122;-76
2022/03/12 10:02:30;;;;;;;13.45;6.88;;;11.40;91.30;;;;;;5093627;28;20470;-75
2022/03/12 10:04:56;;;;;;;9.73;6.40;;;11.50;91.20;;;;;;5093514;28;20135;-76
2022/03/12 10:07:23;;;;;;;10.15;6.97;;;11.60;91.90;;;;;;5092680;28;20127;-74
2022/03/12 10:09:51;;;;;;;9.48;6.85;;;11.70;92.00;;;;;;5093486;28;20452;-76
2022/03/12 10:12:19;;;;;;;11.20;7.13;;;11.80;91.80;;;;;;5093577;28;20090;-74
2022/03/12 10:14:45;;;;;;;11.77;7.38;;;11.90;91.70;;;;;;5093349;28;20496;-75
2022/03/12 10:17:11;;;;;;;14.95;6.68;;;11.90;91.60;;;;;;5093549;28;20089;-75
2022/03/12 10:19:37;;;;;;;11.52;7.43;;;12.10;92.60;;;;;;5093334;28;20090;-74
2022/03/12 10:22:05;;;;;;;9.63;6.80;;;12.30;92.20;;;;;;5093381;28;20087;-75
2022/03/12 10:24:30;;;;;;;11.27;6.65;;;12.40;92.30;;;;;;5093727;28;20396;-75
2022/03/12 10:26:56;;;;;;;10.43;7.10;;;12.50;92.10;;;;;;5093257;28;20036;-74
2022/03/12 10:29:22;;;;;;;12.48;7.90;;;12.70;92.40;;;;;;5093437;28;20036;-75
2022/03/12 10:31:48;;;;;;;10.30;7.53;;;12.80;92.00;;;;;;5095143;28;20463;-75
2022/03/12 10:34:21;;;;;;;11.48;7.18;;;12.80;92.60;;;;;;5096950;28;20392;-76
2022/03/12 10:36:51;;;;;;;12.75;7.45;;;12.80;93.30;;;;;;5096982;28;20127;-76
2022/03/12 10:39:29;;;;;;;11.43;7.15;;;12.90;93.40;;;;;;5096719;28;20087;-77
2022/03/12 10:42:00;;;;;;;9.73;6.68;;;13.00;94.70;;;;;;5096773;28;20594;-76
2022/03/12 10:44:39;;;;;;;9.63;6.85;;;13.00;95.10;;;;;;5096874;28;20384;-76
2022/03/12 10:47:24;;;;;;;9.52;6.88;;;13.00;95.80;;;;;;5097243;28;20071;-75
2022/03/12 10:49:56;;;;;;;10.25;6.68;;;13.20;96.00;;;;;;5096757;28;20040;-75
2022/03/12 10:52:22;;;;;;;10.50;6.57;;;13.30;96.20;;;;;;5095697;28;20040;-76
2022/03/12 10:54:48;;;;;;;12.70;7.00;;;13.30;96.20;;;;;;5095648;28;20189;-75
2022/03/12 10:57:13;;;;;;;11.80;6.95;;;13.50;96.40;;;;;;5096448;28;20048;-74
2022/03/12 10:59:39;;;;;;;10.38;6.75;;;13.50;96.40;;;;;;5096527;28;20075;-74
2022/03/12 11:02:04;;;;;;;11.40;6.70;;;13.50;97.20;;;;;;5096417;28;20047;-76
2022/03/12 11:04:33;;;;;;;8.70;6.53;;;13.60;97.60;;;;;;5096651;28;20132;-75
2022/03/12 11:07:01;;;;;;;9.73;6.80;;;13.70;97.30;;;;;;5096266;28;20500;-74
2022/03/12 11:09:39;;;;;;;9.75;7.15;;;13.60;97.60;;;;;;5096347;28;20050;-75
2022/03/12 11:12:35;;;;;;;9.23;6.63;;;13.60;97.30;;;;;;5096133;28;20056;-75
2022/03/12 11:15:05;;;;;;;14.90;7.47;;;13.40;97.30;;;;;;5096247;28;20500;-75
2022/03/12 11:17:45;;;;;;;11.20;6.85;;;13.40;98.60;;;;;;5095775;28;20102;-77
2022/03/12 11:20:14;;;;;;;9.60;6.63;;;13.50;98.50;;;;;;5096092;28;20395;-75
2022/03/12 11:22:40;;;;;;;10.60;6.85;;;13.90;98.10;;;;;;5096066;28;20048;-75
2022/03/12 11:25:12;;;;;;;10.32;6.50;;;13.70;99.00;;;;;;5095849;28;20062;-77
2022/03/12 11:27:38;;;;;;;8.85;6.15;;;13.90;98.90;;;;;;5096451;28;20381;-74
2022/03/12 11:30:10;;;;;;;12.50;7.20;;;14.10;99.00;;;;;;5095817;28;20052;-74
2022/03/12 11:32:45;;;;;;;9.45;6.90;;;14.30;99.00;;;;;;5095774;28;20063;-75
2022/03/12 11:35:17;;;;;;;9.32;6.78;;;14.40;99.20;;;;;;5095912;28;20101;-74
2022/03/12 11:37:43;;;;;;;10.63;6.80;;;14.50;98.40;;;;;;5095999;28;20044;-73
2022/03/12 11:40:19;;;;;;;11.73;6.53;;;14.50;98.70;;;;;;5095837;28;20139;-73
2022/03/12 11:42:45;;;;;;;10.40;6.85;;;14.30;98.80;;;;;;5095179;28;20044;-74
2022/03/12 11:45:14;;;;;;;11.77;7.40;;;14.30;98.70;;;;;;5095734;28;20392;-73
2022/03/12 11:47:45;;;;;;;8.68;6.43;;;14.40;98.70;;;;;;5095860;28;20040;-75
2022/03/12 11:50:15;;;;;;;12.90;6.78;;;14.30;98.50;;;;;;5095979;28;20036;-73
2022/03/12 11:52:45;;;;;;;12.07;7.43;;;14.40;98.80;;;;;;5094490;28;20488;-74
2022/03/12 11:55:21;;;;;;;9.20;6.80;;;14.40;98.90;;;;;;5095245;28;20541;-74
2022/03/12 11:57:49;;;;;;;9.88;6.47;;;14.50;99.30;;;;;;5095475;28;20121;-74
2022/03/12 12:00:33;;;;;;;9.07;6.60;;;14.60;98.70;;;;;;5095695;28;20052;-73
2022/03/12 12:02:59;;;;;;;10.35;6.72;;;14.70;97.80;;;;;;5095328;28;20195;-74
2022/03/12 12:05:30;;;;;;;11.00;7.00;;;14.70;98.50;;;;;;5095288;28;20579;-74
2022/03/12 12:07:55;;;;;;;11.93;6.53;;;14.60;97.50;;;;;;5095233;28;20051;-74
2022/03/12 12:10:32;;;;;;;9.97;7.20;;;14.50;98.10;;;;;;5095050;28;20396;-73
2022/03/12 12:12:58;;;;;;;9.95;6.50;;;14.50;98.70;;;;;;5093949;28;20189;-73
2022/03/12 12:15:34;;;;;;;9.68;7.00;;;14.40;98.70;;;;;;5094262;28;20047;-73
2022/03/12 12:18:01;;;;;;;8.77;6.32;;;14.30;98.90;;;;;;5095596;28;20048;-74
2022/03/12 12:20:28;;;;;;;9.98;7.05;;;14.40;99.10;;;;;;5094881;28;20132;-74
2022/03/12 12:22:56;;;;;;;9.90;6.25;;;14.50;99.10;;;;;;5094688;28;20083;-75
2022/03/12 12:25:21;;;;;;;9.05;6.97;;;14.50;99.20;;;;;;5094820;28;20047;-74
2022/03/12 12:27:50;;;;;;;9.63;6.57;;;14.60;99.30;;;;;;5093593;28;20055;-74
2022/03/12 12:30:38;;;;;;;8.25;5.88;;;14.50;98.80;;;;;;5094736;28;20550;-73
2022/03/12 12:33:15;;;;;;;8.32;5.95;;;14.60;99.40;;;;;;5094653;28;20044;-73
2022/03/12 12:35:40;;;;;;;7.25;5.28;;;14.60;98.90;;;;;;5094665;28;20492;-73
2022/03/12 12:38:10;;;;;;;8.33;5.43;;;14.70;99.30;;;;;;5094647;28;20057;-74
2022/03/12 12:40:51;;;;;;;10.48;5.32;;;14.80;97.90;;;;;;5094521;28;20051;-73
2022/03/12 12:43:23;;;;;;;7.80;5.65;;;14.70;98.10;;;;;;5094634;28;20040;-72
2022/03/12 12:45:51;;;;;;;9.40;5.50;;;14.70;99.20;;;;;;5094368;28;20059;-74
2022/03/12 12:48:20;;;;;;;9.43;5.70;;;14.80;98.80;;;;;;5094424;28;20036;-74
2022/03/12 12:51:22;;;;;;;11.38;5.68;;;14.80;98.40;;;;;;5093304;28;20480;-73
2022/03/12 12:53:52;;;;;;;7.75;5.22;;;14.80;98.50;;;;;;5093602;28;20051;-74
2022/03/12 12:56:28;;;;;;;8.50;5.50;;;14.70;98.70;;;;;;5092310;28;20499;-74